sensor_id;sensor_type;location;lat;lon;timestamp;P1;durP1;ratioP1;P2;durP2;ratioP2
65996;SDS011;52765;52.258;21.052;2023-05-08T00:01:43;13.77;;;7.80;;
65996;SDS011;52765;52.258;21.052;2023-05-08T00:04:08;20.48;;;8.77;;
65996;SDS011;52765;52.258;21.052;2023-05-08T00:06:34;17.30;;;8.95;;
65996;SDS011;52765;52.258;21.052;2023-05-08T00:09:00;18.65;;;8.75;;
65996;SDS011;52765;52.258;21.052;2023-05-08T00:11:25;16.25;;;8.20;;
65996;SDS011;52765;52.258;21.052;2023-05-08T00:13:51;15.32;;;8.52;;
65996;SDS011;52765;52.258;21.052;2023-05-08T00:16:16;17.88;;;9.18;;
65996;SDS011;52765;52.258;21.052;2023-05-08T00:18:42;14.65;;;8.35;;
65996;SDS011;52765;52.258;21.052;2023-05-08T00:21:07;15.98;;;8.77;;
65996;SDS011;52765;52.258;21.052;2023-05-08T00:23:33;16.10;;;8.40;;
65996;SDS011;52765;52.258;21.052;2023-05-08T00:25:58;17.75;;;9.27;;
65996;SDS011;52765;52.258;21.052;2023-05-08T00:28:24;19.58;;;9.45;;
65996;SDS011;52765;52.258;21.052;2023-05-08T00:30:49;13.27;;;8.07;;
65996;SDS011;52765;52.258;21.052;2023-05-08T00:33:16;18.48;;;9.05;;
65996;SDS011;52765;52.258;21.052;2023-05-08T00:35:42;22.58;;;9.70;;
65996;SDS011;52765;52.258;21.052;2023-05-08T00:38:08;18.88;;;8.45;;
65996;SDS011;52765;52.258;21.052;2023-05-08T00:40:34;16.27;;;7.85;;
65996;SDS011;52765;52.258;21.052;2023-05-08T00:42:59;15.68;;;8.65;;
65996;SDS011;52765;52.258;21.052;2023-05-08T00:45:31;16.42;;;8.30;;
65996;SDS011;52765;52.258;21.052;2023-05-08T00:47:59;16.10;;;9.05;;
65996;SDS011;52765;52.258;21.052;2023-05-08T00:50:25;16.60;;;8.43;;
65996;SDS011;52765;52.258;21.052;2023-05-08T00:52:51;17.60;;;8.60;;
65996;SDS011;52765;52.258;21.052;2023-05-08T00:55:16;17.52;;;8.85;;
65996;SDS011;52765;52.258;21.052;2023-05-08T00:57:47;21.05;;;8.45;;
65996;SDS011;52765;52.258;21.052;2023-05-08T01:00:16;19.77;;;9.35;;
65996;SDS011;52765;52.258;21.052;2023-05-08T01:02:43;16.60;;;8.82;;
65996;SDS011;52765;52.258;21.052;2023-05-08T01:05:08;18.38;;;8.70;;
65996;SDS011;52765;52.258;21.052;2023-05-08T01:07:34;17.92;;;8.80;;
65996;SDS011;52765;52.258;21.052;2023-05-08T01:10:00;15.60;;;8.48;;
65996;SDS011;52765;52.258;21.052;2023-05-08T01:20:21;15.50;;;7.97;;
65996;SDS011;52765;52.258;21.052;2023-05-08T01:26:07;16.05;;;8.00;;
65996;SDS011;52765;52.258;21.052;2023-05-08T01:34:35;16.67;;;8.60;;
65996;SDS011;52765;52.258;21.052;2023-05-08T01:37:16;15.63;;;9.23;;
65996;SDS011;52765;52.258;21.052;2023-05-08T01:42:29;15.85;;;9.60;;
65996;SDS011;52765;52.258;21.052;2023-05-08T01:45:05;20.00;;;10.55;;
65996;SDS011;52765;52.258;21.052;2023-05-08T01:47:37;20.30;;;10.50;;
65996;SDS011;52765;52.258;21.052;2023-05-08T01:50:13;28.08;;;11.15;;
65996;SDS011;52765;52.258;21.052;2023-05-08T01:52:46;26.67;;;12.18;;
65996;SDS011;52765;52.258;21.052;2023-05-08T01:55:16;20.85;;;10.18;;
65996;SDS011;52765;52.258;21.052;2023-05-08T01:57:57;21.42;;;10.98;;
65996;SDS011;52765;52.258;21.052;2023-05-08T02:00:24;22.00;;;11.60;;
65996;SDS011;52765;52.258;21.052;2023-05-08T02:02:51;20.02;;;11.23;;
65996;SDS011;52765;52.258;21.052;2023-05-08T02:05:20;22.63;;;11.05;;
65996;SDS011;52765;52.258;21.052;2023-05-08T02:07:48;22.08;;;10.85;;
65996;SDS011;52765;52.258;21.052;2023-05-08T02:10:15;21.00;;;10.65;;
65996;SDS011;52765;52.258;21.052;2023-05-08T02:12:42;25.70;;;11.73;;
65996;SDS011;52765;52.258;21.052;2023-05-08T02:15:10;27.73;;;12.57;;
65996;SDS011;52765;52.258;21.052;2023-05-08T02:17:38;20.73;;;11.20;;
65996;SDS011;52765;52.258;21.052;2023-05-08T02:20:05;23.73;;;11.93;;
65996;SDS011;52765;52.258;21.052;2023-05-08T02:22:32;25.77;;;12.20;;
65996;SDS011;52765;52.258;21.052;2023-05-08T02:24:58;22.83;;;11.63;;
65996;SDS011;52765;52.258;21.052;2023-05-08T02:27:26;23.00;;;12.30;;
65996;SDS011;52765;52.258;21.052;2023-05-08T02:29:52;21.42;;;11.40;;
65996;SDS011;52765;52.258;21.052;2023-05-08T02:32:19;25.02;;;11.90;;
65996;SDS011;52765;52.258;21.052;2023-05-08T02:34:48;34.28;;;13.32;;
65996;SDS011;52765;52.258;21.052;2023-05-08T02:37:15;25.23;;;12.75;;
65996;SDS011;52765;52.258;21.052;2023-05-08T02:39:43;21.70;;;11.63;;
65996;SDS011;52765;52.258;21.052;2023-05-08T02:42:11;28.13;;;12.50;;
65996;SDS011;52765;52.258;21.052;2023-05-08T02:44:36;25.10;;;12.70;;
65996;SDS011;52765;52.258;21.052;2023-05-08T02:49:56;27.45;;;12.95;;
65996;SDS011;52765;52.258;21.052;2023-05-08T02:52:28;26.90;;;12.45;;
65996;SDS011;52765;52.258;21.052;2023-05-08T02:55:02;25.02;;;12.50;;
65996;SDS011;52765;52.258;21.052;2023-05-08T03:00:10;24.88;;;11.57;;
65996;SDS011;52765;52.258;21.052;2023-05-08T03:02:47;30.60;;;12.68;;
65996;SDS011;52765;52.258;21.052;2023-05-08T03:07:50;22.38;;;10.90;;
65996;SDS011;52765;52.258;21.052;2023-05-08T03:10:18;19.83;;;10.23;;
65996;SDS011;52765;52.258;21.052;2023-05-08T03:12:50;19.75;;;11.27;;
65996;SDS011;52765;52.258;21.052;2023-05-08T03:17:51;21.40;;;11.23;;
65996;SDS011;52765;52.258;21.052;2023-05-08T03:20:20;20.92;;;10.55;;
65996;SDS011;52765;52.258;21.052;2023-05-08T03:22:48;23.35;;;11.32;;
65996;SDS011;52765;52.258;21.052;2023-05-08T03:25:15;25.13;;;9.85;;
65996;SDS011;52765;52.258;21.052;2023-05-08T03:27:44;27.27;;;11.65;;
65996;SDS011;52765;52.258;21.052;2023-05-08T03:30:10;26.02;;;12.52;;
65996;SDS011;52765;52.258;21.052;2023-05-08T03:32:37;22.38;;;10.88;;
65996;SDS011;52765;52.258;21.052;2023-05-08T03:35:03;28.30;;;11.75;;
65996;SDS011;52765;52.258;21.052;2023-05-08T03:37:30;23.75;;;11.35;;
65996;SDS011;52765;52.258;21.052;2023-05-08T03:39:56;22.40;;;10.85;;
65996;SDS011;52765;52.258;21.052;2023-05-08T03:42:22;21.90;;;11.93;;
65996;SDS011;52765;52.258;21.052;2023-05-08T03:44:51;23.45;;;11.07;;
65996;SDS011;52765;52.258;21.052;2023-05-08T03:47:21;25.70;;;10.45;;
65996;SDS011;52765;52.258;21.052;2023-05-08T03:49:50;27.08;;;11.13;;
65996;SDS011;52765;52.258;21.052;2023-05-08T03:52:16;23.17;;;11.18;;
65996;SDS011;52765;52.258;21.052;2023-05-08T03:54:42;21.27;;;10.88;;
65996;SDS011;52765;52.258;21.052;2023-05-08T03:57:08;26.45;;;10.93;;
65996;SDS011;52765;52.258;21.052;2023-05-08T04:05:09;18.25;;;9.60;;
65996;SDS011;52765;52.258;21.052;2023-05-08T04:08:19;22.23;;;11.02;;
65996;SDS011;52765;52.258;21.052;2023-05-08T04:10:54;17.98;;;9.98;;
65996;SDS011;52765;52.258;21.052;2023-05-08T04:13:29;21.70;;;10.00;;
65996;SDS011;52765;52.258;21.052;2023-05-08T04:16:06;19.80;;;9.95;;
65996;SDS011;52765;52.258;21.052;2023-05-08T04:18:38;19.85;;;9.57;;
65996;SDS011;52765;52.258;21.052;2023-05-08T04:21:11;18.65;;;10.15;;
65996;SDS011;52765;52.258;21.052;2023-05-08T04:23:42;22.73;;;10.35;;
65996;SDS011;52765;52.258;21.052;2023-05-08T04:26:12;22.10;;;9.88;;
65996;SDS011;52765;52.258;21.052;2023-05-08T04:28:40;20.67;;;9.95;;
65996;SDS011;52765;52.258;21.052;2023-05-08T04:31:06;20.52;;;9.38;;
65996;SDS011;52765;52.258;21.052;2023-05-08T04:33:33;23.13;;;9.73;;
65996;SDS011;52765;52.258;21.052;2023-05-08T04:36:02;17.70;;;8.80;;
65996;SDS011;52765;52.258;21.052;2023-05-08T04:38:28;16.77;;;8.77;;
65996;SDS011;52765;52.258;21.052;2023-05-08T04:40:54;17.83;;;9.05;;
65996;SDS011;52765;52.258;21.052;2023-05-08T04:43:20;18.30;;;8.77;;
65996;SDS011;52765;52.258;21.052;2023-05-08T04:45:46;22.75;;;8.20;;
65996;SDS011;52765;52.258;21.052;2023-05-08T04:48:11;23.02;;;9.20;;
65996;SDS011;52765;52.258;21.052;2023-05-08T04:50:37;16.05;;;8.07;;
65996;SDS011;52765;52.258;21.052;2023-05-08T04:53:03;17.02;;;8.55;;
65996;SDS011;52765;52.258;21.052;2023-05-08T04:55:28;14.32;;;7.88;;
65996;SDS011;52765;52.258;21.052;2023-05-08T04:57:54;19.60;;;8.40;;
65996;SDS011;52765;52.258;21.052;2023-05-08T05:00:20;15.93;;;7.68;;
65996;SDS011;52765;52.258;21.052;2023-05-08T05:02:45;14.95;;;8.20;;
65996;SDS011;52765;52.258;21.052;2023-05-08T05:05:11;13.27;;;7.85;;
65996;SDS011;52765;52.258;21.052;2023-05-08T05:07:36;15.93;;;8.20;;
65996;SDS011;52765;52.258;21.052;2023-05-08T05:10:02;13.45;;;7.70;;
65996;SDS011;52765;52.258;21.052;2023-05-08T05:12:28;14.20;;;8.07;;
65996;SDS011;52765;52.258;21.052;2023-05-08T05:14:53;11.23;;;7.40;;
65996;SDS011;52765;52.258;21.052;2023-05-08T05:17:19;19.27;;;7.63;;
65996;SDS011;52765;52.258;21.052;2023-05-08T05:19:45;13.98;;;6.80;;
65996;SDS011;52765;52.258;21.052;2023-05-08T05:22:11;16.27;;;7.60;;
65996;SDS011;52765;52.258;21.052;2023-05-08T05:24:37;14.73;;;6.70;;
65996;SDS011;52765;52.258;21.052;2023-05-08T05:27:04;16.00;;;7.47;;
65996;SDS011;52765;52.258;21.052;2023-05-08T05:29:30;12.93;;;6.63;;
65996;SDS011;52765;52.258;21.052;2023-05-08T05:31:56;15.40;;;7.07;;
65996;SDS011;52765;52.258;21.052;2023-05-08T05:34:21;16.45;;;7.45;;
65996;SDS011;52765;52.258;21.052;2023-05-08T05:36:47;14.73;;;5.70;;
65996;SDS011;52765;52.258;21.052;2023-05-08T05:39:12;17.67;;;5.93;;
65996;SDS011;52765;52.258;21.052;2023-05-08T05:41:38;8.65;;;5.07;;
65996;SDS011;52765;52.258;21.052;2023-05-08T05:44:03;9.02;;;5.22;;
65996;SDS011;52765;52.258;21.052;2023-05-08T05:46:29;8.25;;;4.60;;
65996;SDS011;52765;52.258;21.052;2023-05-08T05:48:57;12.30;;;5.80;;
65996;SDS011;52765;52.258;21.052;2023-05-08T05:51:23;9.10;;;4.72;;
65996;SDS011;52765;52.258;21.052;2023-05-08T05:53:48;10.02;;;5.45;;
65996;SDS011;52765;52.258;21.052;2023-05-08T05:56:14;8.07;;;4.28;;
65996;SDS011;52765;52.258;21.052;2023-05-08T05:58:39;8.75;;;3.90;;
65996;SDS011;52765;52.258;21.052;2023-05-08T06:01:08;7.20;;;3.67;;
65996;SDS011;52765;52.258;21.052;2023-05-08T06:03:34;7.80;;;3.47;;
65996;SDS011;52765;52.258;21.052;2023-05-08T06:06:00;8.65;;;3.13;;
65996;SDS011;52765;52.258;21.052;2023-05-08T06:08:26;6.68;;;3.28;;
65996;SDS011;52765;52.258;21.052;2023-05-08T06:10:52;8.27;;;3.53;;
65996;SDS011;52765;52.258;21.052;2023-05-08T06:13:17;5.40;;;2.78;;
65996;SDS011;52765;52.258;21.052;2023-05-08T06:15:44;5.63;;;2.63;;
65996;SDS011;52765;52.258;21.052;2023-05-08T06:18:09;4.82;;;2.90;;
65996;SDS011;52765;52.258;21.052;2023-05-08T06:20:36;6.18;;;2.35;;
65996;SDS011;52765;52.258;21.052;2023-05-08T06:23:02;3.45;;;2.13;;
65996;SDS011;52765;52.258;21.052;2023-05-08T06:25:28;7.10;;;2.28;;
65996;SDS011;52765;52.258;21.052;2023-05-08T06:27:55;6.75;;;1.95;;
65996;SDS011;52765;52.258;21.052;2023-05-08T06:30:20;6.03;;;2.50;;
65996;SDS011;52765;52.258;21.052;2023-05-08T06:32:46;4.28;;;1.80;;
65996;SDS011;52765;52.258;21.052;2023-05-08T06:35:12;4.93;;;2.45;;
65996;SDS011;52765;52.258;21.052;2023-05-08T06:37:39;7.20;;;2.50;;
65996;SDS011;52765;52.258;21.052;2023-05-08T06:40:05;4.63;;;2.08;;
65996;SDS011;52765;52.258;21.052;2023-05-08T06:42:31;6.32;;;2.38;;
65996;SDS011;52765;52.258;21.052;2023-05-08T06:44:56;6.07;;;2.22;;
65996;SDS011;52765;52.258;21.052;2023-05-08T06:47:21;5.13;;;2.00;;
65996;SDS011;52765;52.258;21.052;2023-05-08T06:49:47;2.72;;;1.92;;
65996;SDS011;52765;52.258;21.052;2023-05-08T06:52:12;6.22;;;3.08;;
65996;SDS011;52765;52.258;21.052;2023-05-08T06:54:38;6.60;;;2.33;;
65996;SDS011;52765;52.258;21.052;2023-05-08T06:57:05;2.60;;;1.63;;
65996;SDS011;52765;52.258;21.052;2023-05-08T06:59:31;4.20;;;1.77;;
65996;SDS011;52765;52.258;21.052;2023-05-08T07:01:57;2.78;;;1.70;;
65996;SDS011;52765;52.258;21.052;2023-05-08T07:04:23;6.43;;;1.73;;
65996;SDS011;52765;52.258;21.052;2023-05-08T07:06:48;4.53;;;1.85;;
65996;SDS011;52765;52.258;21.052;2023-05-08T07:09:14;4.50;;;1.95;;
65996;SDS011;52765;52.258;21.052;2023-05-08T07:11:40;6.32;;;2.10;;
65996;SDS011;52765;52.258;21.052;2023-05-08T07:14:06;2.92;;;1.75;;
65996;SDS011;52765;52.258;21.052;2023-05-08T07:16:31;3.13;;;1.42;;
65996;SDS011;52765;52.258;21.052;2023-05-08T07:18:57;5.60;;;2.42;;
65996;SDS011;52765;52.258;21.052;2023-05-08T07:21:22;4.28;;;2.10;;
65996;SDS011;52765;52.258;21.052;2023-05-08T07:23:49;6.20;;;2.47;;
65996;SDS011;52765;52.258;21.052;2023-05-08T07:26:15;6.57;;;2.08;;
65996;SDS011;52765;52.258;21.052;2023-05-08T07:28:42;2.78;;;1.80;;
65996;SDS011;52765;52.258;21.052;2023-05-08T07:31:07;3.38;;;1.60;;
65996;SDS011;52765;52.258;21.052;2023-05-08T07:33:33;3.55;;;2.00;;
65996;SDS011;52765;52.258;21.052;2023-05-08T07:36:00;11.48;;;2.58;;
65996;SDS011;52765;52.258;21.052;2023-05-08T07:38:25;4.65;;;1.98;;
65996;SDS011;52765;52.258;21.052;2023-05-08T07:40:51;27.05;;;3.92;;
65996;SDS011;52765;52.258;21.052;2023-05-08T07:43:20;7.78;;;2.30;;
65996;SDS011;52765;52.258;21.052;2023-05-08T07:45:46;5.13;;;2.25;;
65996;SDS011;52765;52.258;21.052;2023-05-08T07:48:12;4.30;;;1.85;;
65996;SDS011;52765;52.258;21.052;2023-05-08T07:50:38;4.25;;;1.85;;
65996;SDS011;52765;52.258;21.052;2023-05-08T07:53:03;3.60;;;1.60;;
65996;SDS011;52765;52.258;21.052;2023-05-08T07:55:30;4.35;;;1.80;;
65996;SDS011;52765;52.258;21.052;2023-05-08T07:57:59;2.22;;;1.70;;
65996;SDS011;52765;52.258;21.052;2023-05-08T08:00:24;3.25;;;1.70;;
65996;SDS011;52765;52.258;21.052;2023-05-08T08:02:54;6.10;;;2.10;;
65996;SDS011;52765;52.258;21.052;2023-05-08T08:05:19;4.00;;;2.15;;
65996;SDS011;52765;52.258;21.052;2023-05-08T08:07:45;5.88;;;1.75;;
65996;SDS011;52765;52.258;21.052;2023-05-08T08:10:11;3.17;;;1.73;;
65996;SDS011;52765;52.258;21.052;2023-05-08T08:12:36;3.50;;;2.30;;
65996;SDS011;52765;52.258;21.052;2023-05-08T08:15:03;2.53;;;1.80;;
65996;SDS011;52765;52.258;21.052;2023-05-08T08:17:29;2.42;;;1.80;;
65996;SDS011;52765;52.258;21.052;2023-05-08T08:19:55;4.90;;;1.95;;
65996;SDS011;52765;52.258;21.052;2023-05-08T08:22:21;5.90;;;2.15;;
65996;SDS011;52765;52.258;21.052;2023-05-08T08:24:47;3.33;;;1.92;;
65996;SDS011;52765;52.258;21.052;2023-05-08T08:27:12;2.15;;;1.40;;
65996;SDS011;52765;52.258;21.052;2023-05-08T08:29:38;3.40;;;1.75;;
65996;SDS011;52765;52.258;21.052;2023-05-08T08:32:04;4.53;;;2.47;;
65996;SDS011;52765;52.258;21.052;2023-05-08T08:34:33;3.13;;;1.80;;
65996;SDS011;52765;52.258;21.052;2023-05-08T08:36:58;4.80;;;2.33;;
65996;SDS011;52765;52.258;21.052;2023-05-08T08:39:24;3.05;;;2.33;;
65996;SDS011;52765;52.258;21.052;2023-05-08T08:41:50;2.92;;;2.00;;
65996;SDS011;52765;52.258;21.052;2023-05-08T08:44:15;9.43;;;2.20;;
65996;SDS011;52765;52.258;21.052;2023-05-08T08:46:43;4.90;;;2.10;;
65996;SDS011;52765;52.258;21.052;2023-05-08T08:49:16;2.50;;;1.40;;
65996;SDS011;52765;52.258;21.052;2023-05-08T08:51:50;2.53;;;1.77;;
65996;SDS011;52765;52.258;21.052;2023-05-08T08:54:27;3.05;;;1.92;;
65996;SDS011;52765;52.258;21.052;2023-05-08T08:56:55;4.07;;;1.70;;
65996;SDS011;52765;52.258;21.052;2023-05-08T08:59:24;3.40;;;2.00;;
65996;SDS011;52765;52.258;21.052;2023-05-08T09:02:00;5.53;;;3.00;;
65996;SDS011;52765;52.258;21.052;2023-05-08T09:04:32;6.85;;;2.28;;
65996;SDS011;52765;52.258;21.052;2023-05-08T09:06:58;6.13;;;2.10;;
65996;SDS011;52765;52.258;21.052;2023-05-08T09:09:29;6.30;;;2.25;;
65996;SDS011;52765;52.258;21.052;2023-05-08T09:11:58;3.13;;;2.08;;
65996;SDS011;52765;52.258;21.052;2023-05-08T09:14:24;4.60;;;2.70;;
65996;SDS011;52765;52.258;21.052;2023-05-08T09:16:50;23.55;;;3.40;;
65996;SDS011;52765;52.258;21.052;2023-05-08T09:19:18;4.97;;;1.85;;
65996;SDS011;52765;52.258;21.052;2023-05-08T09:21:43;4.30;;;2.45;;
65996;SDS011;52765;52.258;21.052;2023-05-08T09:24:09;5.82;;;2.10;;
65996;SDS011;52765;52.258;21.052;2023-05-08T09:26:37;3.67;;;2.70;;
65996;SDS011;52765;52.258;21.052;2023-05-08T09:29:07;2.88;;;1.90;;
65996;SDS011;52765;52.258;21.052;2023-05-08T09:31:34;3.70;;;1.63;;
65996;SDS011;52765;52.258;21.052;2023-05-08T09:34:00;3.05;;;1.73;;
65996;SDS011;52765;52.258;21.052;2023-05-08T09:36:26;4.13;;;1.90;;
65996;SDS011;52765;52.258;21.052;2023-05-08T09:38:55;4.60;;;1.90;;
65996;SDS011;52765;52.258;21.052;2023-05-08T09:41:21;8.43;;;2.03;;
65996;SDS011;52765;52.258;21.052;2023-05-08T09:44:01;7.53;;;2.25;;
65996;SDS011;52765;52.258;21.052;2023-05-08T09:46:28;2.25;;;1.70;;
65996;SDS011;52765;52.258;21.052;2023-05-08T09:48:55;10.27;;;3.15;;
65996;SDS011;52765;52.258;21.052;2023-05-08T09:51:22;4.15;;;2.30;;
65996;SDS011;52765;52.258;21.052;2023-05-08T09:53:49;3.53;;;1.90;;
65996;SDS011;52765;52.258;21.052;2023-05-08T09:56:29;5.10;;;2.15;;
65996;SDS011;52765;52.258;21.052;2023-05-08T09:59:03;4.78;;;2.25;;
65996;SDS011;52765;52.258;21.052;2023-05-08T10:01:46;3.45;;;1.80;;
65996;SDS011;52765;52.258;21.052;2023-05-08T10:04:12;3.65;;;1.80;;
65996;SDS011;52765;52.258;21.052;2023-05-08T10:06:38;6.20;;;1.85;;
65996;SDS011;52765;52.258;21.052;2023-05-08T10:09:11;3.03;;;2.08;;
65996;SDS011;52765;52.258;21.052;2023-05-08T10:11:41;2.53;;;1.85;;
65996;SDS011;52765;52.258;21.052;2023-05-08T10:14:16;4.75;;;2.13;;
65996;SDS011;52765;52.258;21.052;2023-05-08T10:16:44;2.97;;;1.63;;
65996;SDS011;52765;52.258;21.052;2023-05-08T10:19:11;5.18;;;2.40;;
65996;SDS011;52765;52.258;21.052;2023-05-08T10:21:44;4.82;;;2.20;;
65996;SDS011;52765;52.258;21.052;2023-05-08T10:24:17;3.92;;;1.95;;
65996;SDS011;52765;52.258;21.052;2023-05-08T10:29:32;3.95;;;1.80;;
65996;SDS011;52765;52.258;21.052;2023-05-08T10:32:04;3.30;;;1.70;;
65996;SDS011;52765;52.258;21.052;2023-05-08T10:34:34;6.15;;;2.15;;
65996;SDS011;52765;52.258;21.052;2023-05-08T10:37:04;8.57;;;2.28;;
65996;SDS011;52765;52.258;21.052;2023-05-08T10:39:35;6.00;;;2.10;;
65996;SDS011;52765;52.258;21.052;2023-05-08T10:42:01;2.92;;;1.70;;
65996;SDS011;52765;52.258;21.052;2023-05-08T10:44:27;2.85;;;2.00;;
65996;SDS011;52765;52.258;21.052;2023-05-08T10:55:32;6.43;;;2.50;;
65996;SDS011;52765;52.258;21.052;2023-05-08T11:03:17;4.22;;;2.05;;
65996;SDS011;52765;52.258;21.052;2023-05-08T11:05:47;3.95;;;2.05;;
65996;SDS011;52765;52.258;21.052;2023-05-08T11:08:14;5.70;;;2.10;;
65996;SDS011;52765;52.258;21.052;2023-05-08T11:10:50;4.00;;;2.10;;
65996;SDS011;52765;52.258;21.052;2023-05-08T11:16:12;2.60;;;2.08;;
65996;SDS011;52765;52.258;21.052;2023-05-08T11:18:37;4.05;;;1.80;;
65996;SDS011;52765;52.258;21.052;2023-05-08T11:24:38;4.40;;;1.92;;
65996;SDS011;52765;52.258;21.052;2023-05-08T11:27:05;3.75;;;2.00;;
65996;SDS011;52765;52.258;21.052;2023-05-08T11:29:31;4.95;;;2.00;;
65996;SDS011;52765;52.258;21.052;2023-05-08T11:31:57;3.75;;;1.83;;
65996;SDS011;52765;52.258;21.052;2023-05-08T11:39:35;5.90;;;1.65;;
65996;SDS011;52765;52.258;21.052;2023-05-08T11:47:40;7.20;;;2.10;;
65996;SDS011;52765;52.258;21.052;2023-05-08T11:50:10;3.63;;;1.80;;
65996;SDS011;52765;52.258;21.052;2023-05-08T11:52:38;4.13;;;1.90;;
65996;SDS011;52765;52.258;21.052;2023-05-08T11:55:05;4.70;;;2.25;;
65996;SDS011;52765;52.258;21.052;2023-05-08T11:57:35;4.68;;;1.80;;
65996;SDS011;52765;52.258;21.052;2023-05-08T12:00:10;5.78;;;2.60;;
65996;SDS011;52765;52.258;21.052;2023-05-08T12:02:37;3.15;;;1.80;;
65996;SDS011;52765;52.258;21.052;2023-05-08T12:05:03;3.15;;;1.73;;
65996;SDS011;52765;52.258;21.052;2023-05-08T12:07:29;3.55;;;1.88;;
65996;SDS011;52765;52.258;21.052;2023-05-08T12:09:55;4.25;;;1.70;;
65996;SDS011;52765;52.258;21.052;2023-05-08T12:12:20;4.32;;;1.60;;
65996;SDS011;52765;52.258;21.052;2023-05-08T12:14:49;4.45;;;2.20;;
65996;SDS011;52765;52.258;21.052;2023-05-08T12:17:16;4.68;;;1.85;;
65996;SDS011;52765;52.258;21.052;2023-05-08T12:19:42;5.78;;;1.90;;
65996;SDS011;52765;52.258;21.052;2023-05-08T12:22:08;2.67;;;2.03;;
65996;SDS011;52765;52.258;21.052;2023-05-08T12:24:36;8.38;;;2.10;;
65996;SDS011;52765;52.258;21.052;2023-05-08T12:27:03;5.25;;;2.45;;
65996;SDS011;52765;52.258;21.052;2023-05-08T12:29:28;8.98;;;2.20;;
65996;SDS011;52765;52.258;21.052;2023-05-08T12:31:54;7.30;;;1.85;;
65996;SDS011;52765;52.258;21.052;2023-05-08T12:34:20;5.40;;;2.10;;
65996;SDS011;52765;52.258;21.052;2023-05-08T12:36:46;7.25;;;2.30;;
65996;SDS011;52765;52.258;21.052;2023-05-08T12:39:12;5.95;;;2.08;;
65996;SDS011;52765;52.258;21.052;2023-05-08T12:41:51;3.85;;;2.00;;
65996;SDS011;52765;52.258;21.052;2023-05-08T12:44:22;2.58;;;1.83;;
65996;SDS011;52765;52.258;21.052;2023-05-08T12:46:49;6.32;;;2.03;;
65996;SDS011;52765;52.258;21.052;2023-05-08T12:49:51;4.22;;;1.95;;
65996;SDS011;52765;52.258;21.052;2023-05-08T12:52:08;5.82;;;1.90;;
65996;SDS011;52765;52.258;21.052;2023-05-08T12:54:45;2.63;;;1.80;;
65996;SDS011;52765;52.258;21.052;2023-05-08T12:57:14;4.40;;;1.80;;
65996;SDS011;52765;52.258;21.052;2023-05-08T12:59:42;5.88;;;1.70;;
65996;SDS011;52765;52.258;21.052;2023-05-08T13:02:19;12.23;;;2.13;;
65996;SDS011;52765;52.258;21.052;2023-05-08T13:04:54;3.00;;;1.77;;
65996;SDS011;52765;52.258;21.052;2023-05-08T13:07:20;6.90;;;1.95;;
65996;SDS011;52765;52.258;21.052;2023-05-08T13:09:58;2.78;;;1.70;;
65996;SDS011;52765;52.258;21.052;2023-05-08T13:12:27;3.83;;;1.77;;
65996;SDS011;52765;52.258;21.052;2023-05-08T13:14:53;8.73;;;2.15;;
65996;SDS011;52765;52.258;21.052;2023-05-08T13:17:25;2.78;;;1.90;;
65996;SDS011;52765;52.258;21.052;2023-05-08T13:19:50;2.80;;;1.75;;
65996;SDS011;52765;52.258;21.052;2023-05-08T13:22:16;5.10;;;2.00;;
65996;SDS011;52765;52.258;21.052;2023-05-08T13:24:41;2.22;;;1.90;;
65996;SDS011;52765;52.258;21.052;2023-05-08T13:27:09;7.50;;;2.10;;
65996;SDS011;52765;52.258;21.052;2023-05-08T13:29:35;3.50;;;1.80;;
65996;SDS011;52765;52.258;21.052;2023-05-08T13:32:00;9.93;;;2.00;;
65996;SDS011;52765;52.258;21.052;2023-05-08T13:34:26;6.53;;;2.70;;
65996;SDS011;52765;52.258;21.052;2023-05-08T13:36:51;3.80;;;1.73;;
65996;SDS011;52765;52.258;21.052;2023-05-08T13:39:17;12.13;;;2.42;;
65996;SDS011;52765;52.258;21.052;2023-05-08T13:41:42;4.18;;;1.80;;
65996;SDS011;52765;52.258;21.052;2023-05-08T13:44:07;4.75;;;1.80;;
65996;SDS011;52765;52.258;21.052;2023-05-08T13:46:33;3.42;;;1.90;;
65996;SDS011;52765;52.258;21.052;2023-05-08T13:48:58;5.68;;;2.50;;
65996;SDS011;52765;52.258;21.052;2023-05-08T13:51:24;6.13;;;2.05;;
65996;SDS011;52765;52.258;21.052;2023-05-08T13:53:52;5.07;;;2.15;;
65996;SDS011;52765;52.258;21.052;2023-05-08T13:56:18;4.72;;;2.00;;
65996;SDS011;52765;52.258;21.052;2023-05-08T13:58:45;6.07;;;2.08;;
65996;SDS011;52765;52.258;21.052;2023-05-08T14:01:11;10.20;;;2.58;;
65996;SDS011;52765;52.258;21.052;2023-05-08T14:03:36;6.13;;;3.33;;
65996;SDS011;52765;52.258;21.052;2023-05-08T14:06:03;6.57;;;2.00;;
65996;SDS011;52765;52.258;21.052;2023-05-08T14:08:29;7.22;;;1.95;;
65996;SDS011;52765;52.258;21.052;2023-05-08T14:10:56;4.35;;;1.80;;
65996;SDS011;52765;52.258;21.052;2023-05-08T14:13:21;4.60;;;2.30;;
65996;SDS011;52765;52.258;21.052;2023-05-08T14:15:46;4.35;;;2.00;;
65996;SDS011;52765;52.258;21.052;2023-05-08T14:18:12;4.07;;;1.90;;
65996;SDS011;52765;52.258;21.052;2023-05-08T14:20:37;4.82;;;1.90;;
65996;SDS011;52765;52.258;21.052;2023-05-08T14:23:03;5.18;;;2.25;;
65996;SDS011;52765;52.258;21.052;2023-05-08T14:25:29;5.45;;;1.95;;
65996;SDS011;52765;52.258;21.052;2023-05-08T14:27:54;7.40;;;1.70;;
65996;SDS011;52765;52.258;21.052;2023-05-08T14:30:20;3.35;;;1.83;;
65996;SDS011;52765;52.258;21.052;2023-05-08T14:32:45;6.03;;;2.72;;
65996;SDS011;52765;52.258;21.052;2023-05-08T14:35:11;6.15;;;2.28;;
65996;SDS011;52765;52.258;21.052;2023-05-08T14:37:37;3.80;;;2.38;;
65996;SDS011;52765;52.258;21.052;2023-05-08T14:40:03;6.78;;;2.95;;
65996;SDS011;52765;52.258;21.052;2023-05-08T14:42:29;5.90;;;3.10;;
65996;SDS011;52765;52.258;21.052;2023-05-08T14:44:56;9.65;;;2.22;;
65996;SDS011;52765;52.258;21.052;2023-05-08T14:47:22;11.30;;;2.63;;
65996;SDS011;52765;52.258;21.052;2023-05-08T14:49:48;2.97;;;1.90;;
65996;SDS011;52765;52.258;21.052;2023-05-08T14:52:14;7.05;;;2.22;;
65996;SDS011;52765;52.258;21.052;2023-05-08T14:54:42;7.97;;;2.50;;
65996;SDS011;52765;52.258;21.052;2023-05-08T14:57:08;5.90;;;2.05;;
65996;SDS011;52765;52.258;21.052;2023-05-08T14:59:33;4.63;;;1.90;;
65996;SDS011;52765;52.258;21.052;2023-05-08T15:01:59;3.67;;;1.67;;
65996;SDS011;52765;52.258;21.052;2023-05-08T15:04:24;6.13;;;2.00;;
65996;SDS011;52765;52.258;21.052;2023-05-08T15:06:50;4.47;;;2.03;;
65996;SDS011;52765;52.258;21.052;2023-05-08T15:09:15;3.65;;;1.60;;
65996;SDS011;52765;52.258;21.052;2023-05-08T15:11:40;5.95;;;1.50;;
65996;SDS011;52765;52.258;21.052;2023-05-08T15:14:06;4.70;;;2.00;;
65996;SDS011;52765;52.258;21.052;2023-05-08T15:16:32;6.10;;;3.28;;
65996;SDS011;52765;52.258;21.052;2023-05-08T15:18:58;2.75;;;2.30;;
65996;SDS011;52765;52.258;21.052;2023-05-08T15:21:24;6.07;;;2.08;;
65996;SDS011;52765;52.258;21.052;2023-05-08T15:23:53;7.78;;;2.38;;
65996;SDS011;52765;52.258;21.052;2023-05-08T15:26:20;3.33;;;1.95;;
65996;SDS011;52765;52.258;21.052;2023-05-08T15:28:46;4.88;;;2.28;;
65996;SDS011;52765;52.258;21.052;2023-05-08T15:31:12;5.07;;;2.35;;
65996;SDS011;52765;52.258;21.052;2023-05-08T15:33:37;7.47;;;2.50;;
65996;SDS011;52765;52.258;21.052;2023-05-08T15:36:08;4.55;;;2.00;;
65996;SDS011;52765;52.258;21.052;2023-05-08T15:38:34;7.05;;;2.38;;
65996;SDS011;52765;52.258;21.052;2023-05-08T15:41:01;7.22;;;3.13;;